sensor_id;sensor_type;location;lat;lon;timestamp;P1;durP1;ratioP1;P2;durP2;ratioP2
59512;SDS011;45330;51.634;5.562;2023-12-07T00:01:45;36.05;;;21.67;;
59512;SDS011;45330;51.634;5.562;2023-12-07T00:04:10;41.33;;;22.23;;
59512;SDS011;45330;51.634;5.562;2023-12-07T00:06:36;40.92;;;23.10;;
59512;SDS011;45330;51.634;5.562;2023-12-07T00:09:01;36.47;;;21.35;;
59512;SDS011;45330;51.634;5.562;2023-12-07T00:11:27;41.25;;;22.15;;
59512;SDS011;45330;51.634;5.562;2023-12-07T00:13:52;40.03;;;22.30;;
59512;SDS011;45330;51.634;5.562;2023-12-07T00:16:18;39.28;;;22.35;;
59512;SDS011;45330;51.634;5.562;2023-12-07T00:18:43;39.78;;;21.58;;
59512;SDS011;45330;51.634;5.562;2023-12-07T00:21:08;41.40;;;22.02;;
59512;SDS011;45330;51.634;5.562;2023-12-07T00:23:34;38.17;;;21.80;;
59512;SDS011;45330;51.634;5.562;2023-12-07T00:26:00;39.17;;;22.23;;
59512;SDS011;45330;51.634;5.562;2023-12-07T00:28:25;39.40;;;21.85;;
59512;SDS011;45330;51.634;5.562;2023-12-07T00:30:51;43.28;;;24.17;;
59512;SDS011;45330;51.634;5.562;2023-12-07T00:33:17;43.33;;;23.45;;
59512;SDS011;45330;51.634;5.562;2023-12-07T00:35:42;37.17;;;21.40;;
59512;SDS011;45330;51.634;5.562;2023-12-07T00:38:08;39.33;;;22.23;;
59512;SDS011;45330;51.634;5.562;2023-12-07T00:40:33;37.80;;;21.48;;
59512;SDS011;45330;51.634;5.562;2023-12-07T00:43:01;37.65;;;20.67;;
59512;SDS011;45330;51.634;5.562;2023-12-07T00:45:28;36.53;;;20.50;;
59512;SDS011;45330;51.634;5.562;2023-12-07T00:47:53;37.53;;;21.05;;
59512;SDS011;45330;51.634;5.562;2023-12-07T00:50:19;36.30;;;20.90;;
59512;SDS011;45330;51.634;5.562;2023-12-07T00:52:44;36.72;;;20.52;;
59512;SDS011;45330;51.634;5.562;2023-12-07T00:55:10;40.67;;;22.27;;
59512;SDS011;45330;51.634;5.562;2023-12-07T00:57:35;38.25;;;21.95;;
59512;SDS011;45330;51.634;5.562;2023-12-07T01:00:01;39.47;;;21.70;;
59512;SDS011;45330;51.634;5.562;2023-12-07T01:02:26;40.10;;;21.85;;
59512;SDS011;45330;51.634;5.562;2023-12-07T01:04:52;41.08;;;22.42;;
59512;SDS011;45330;51.634;5.562;2023-12-07T01:07:17;41.35;;;22.80;;
59512;SDS011;45330;51.634;5.562;2023-12-07T01:09:43;39.78;;;21.52;;
59512;SDS011;45330;51.634;5.562;2023-12-07T01:12:08;42.25;;;21.60;;
59512;SDS011;45330;51.634;5.562;2023-12-07T01:14:34;39.60;;;22.67;;
59512;SDS011;45330;51.634;5.562;2023-12-07T01:16:59;40.65;;;21.85;;
59512;SDS011;45330;51.634;5.562;2023-12-07T01:19:24;41.60;;;23.63;;
59512;SDS011;45330;51.634;5.562;2023-12-07T01:21:50;41.15;;;22.48;;
59512;SDS011;45330;51.634;5.562;2023-12-07T01:24:15;40.08;;;22.35;;
59512;SDS011;45330;51.634;5.562;2023-12-07T01:26:41;42.75;;;23.13;;
59512;SDS011;45330;51.634;5.562;2023-12-07T01:29:07;41.03;;;23.60;;
59512;SDS011;45330;51.634;5.562;2023-12-07T01:31:32;38.67;;;22.17;;
59512;SDS011;45330;51.634;5.562;2023-12-07T01:33:57;44.22;;;22.83;;
59512;SDS011;45330;51.634;5.562;2023-12-07T01:36:23;42.75;;;23.27;;
59512;SDS011;45330;51.634;5.562;2023-12-07T01:38:48;40.88;;;22.75;;
59512;SDS011;45330;51.634;5.562;2023-12-07T01:41:13;45.92;;;23.30;;
59512;SDS011;45330;51.634;5.562;2023-12-07T01:43:46;41.70;;;23.77;;
59512;SDS011;45330;51.634;5.562;2023-12-07T01:46:11;42.88;;;24.25;;
59512;SDS011;45330;51.634;5.562;2023-12-07T01:48:37;44.58;;;23.00;;
59512;SDS011;45330;51.634;5.562;2023-12-07T01:51:03;44.78;;;24.20;;
59512;SDS011;45330;51.634;5.562;2023-12-07T01:53:29;44.03;;;24.05;;
59512;SDS011;45330;51.634;5.562;2023-12-07T01:55:54;44.03;;;23.92;;
59512;SDS011;45330;51.634;5.562;2023-12-07T01:58:21;42.40;;;22.92;;
59512;SDS011;45330;51.634;5.562;2023-12-07T02:00:47;42.65;;;22.63;;
59512;SDS011;45330;51.634;5.562;2023-12-07T02:03:13;44.85;;;22.55;;
59512;SDS011;45330;51.634;5.562;2023-12-07T02:05:42;39.75;;;21.75;;
59512;SDS011;45330;51.634;5.562;2023-12-07T02:08:11;40.00;;;22.25;;
59512;SDS011;45330;51.634;5.562;2023-12-07T02:10:36;46.05;;;23.45;;
59512;SDS011;45330;51.634;5.562;2023-12-07T02:13:01;43.30;;;21.98;;
59512;SDS011;45330;51.634;5.562;2023-12-07T02:15:28;42.53;;;23.30;;
59512;SDS011;45330;51.634;5.562;2023-12-07T02:23:21;39.95;;;22.65;;
59512;SDS011;45330;51.634;5.562;2023-12-07T02:25:51;40.05;;;21.60;;
59512;SDS011;45330;51.634;5.562;2023-12-07T02:28:18;39.75;;;22.40;;
59512;SDS011;45330;51.634;5.562;2023-12-07T02:30:43;46.25;;;23.35;;
59512;SDS011;45330;51.634;5.562;2023-12-07T02:33:09;51.53;;;24.02;;
59512;SDS011;45330;51.634;5.562;2023-12-07T02:35:36;43.63;;;22.98;;
59512;SDS011;45330;51.634;5.562;2023-12-07T02:38:02;52.15;;;23.67;;
59512;SDS011;45330;51.634;5.562;2023-12-07T02:40:30;62.97;;;25.27;;
59512;SDS011;45330;51.634;5.562;2023-12-07T02:42:57;77.78;;;26.88;;
59512;SDS011;45330;51.634;5.562;2023-12-07T02:45:24;55.72;;;25.00;;
59512;SDS011;45330;51.634;5.562;2023-12-07T02:47:50;62.33;;;24.73;;
59512;SDS011;45330;51.634;5.562;2023-12-07T02:50:16;79.75;;;25.08;;
59512;SDS011;45330;51.634;5.562;2023-12-07T02:52:41;100.05;;;28.05;;
59512;SDS011;45330;51.634;5.562;2023-12-07T02:55:07;87.65;;;27.23;;
59512;SDS011;45330;51.634;5.562;2023-12-07T02:57:34;74.05;;;26.45;;
59512;SDS011;45330;51.634;5.562;2023-12-07T02:59:59;83.03;;;27.67;;
59512;SDS011;45330;51.634;5.562;2023-12-07T03:02:25;103.75;;;28.80;;
59512;SDS011;45330;51.634;5.562;2023-12-07T03:04:50;72.05;;;26.95;;
59512;SDS011;45330;51.634;5.562;2023-12-07T03:07:16;74.10;;;26.25;;
59512;SDS011;45330;51.634;5.562;2023-12-07T03:09:41;96.47;;;29.15;;
59512;SDS011;45330;51.634;5.562;2023-12-07T03:12:07;134.65;;;33.08;;
59512;SDS011;45330;51.634;5.562;2023-12-07T03:14:33;122.18;;;32.58;;
59512;SDS011;45330;51.634;5.562;2023-12-07T03:16:58;89.85;;;29.42;;
59512;SDS011;45330;51.634;5.562;2023-12-07T03:19:24;128.10;;;33.00;;
59512;SDS011;45330;51.634;5.562;2023-12-07T03:21:49;148.02;;;34.13;;
59512;SDS011;45330;51.634;5.562;2023-12-07T03:24:15;133.65;;;33.15;;
59512;SDS011;45330;51.634;5.562;2023-12-07T03:26:40;143.18;;;35.95;;
59512;SDS011;45330;51.634;5.562;2023-12-07T03:29:05;152.85;;;35.38;;
59512;SDS011;45330;51.634;5.562;2023-12-07T03:31:34;156.48;;;34.13;;
59512;SDS011;45330;51.634;5.562;2023-12-07T03:33:59;94.05;;;30.75;;
59512;SDS011;45330;51.634;5.562;2023-12-07T03:36:26;134.68;;;33.58;;
59512;SDS011;45330;51.634;5.562;2023-12-07T03:38:51;133.82;;;34.22;;
59512;SDS011;45330;51.634;5.562;2023-12-07T03:41:17;129.43;;;36.95;;
59512;SDS011;45330;51.634;5.562;2023-12-07T03:43:42;141.63;;;34.65;;
59512;SDS011;45330;51.634;5.562;2023-12-07T03:46:07;115.10;;;32.20;;
59512;SDS011;45330;51.634;5.562;2023-12-07T03:48:33;137.18;;;33.17;;
59512;SDS011;45330;51.634;5.562;2023-12-07T03:50:59;131.65;;;34.58;;
59512;SDS011;45330;51.634;5.562;2023-12-07T03:53:25;92.28;;;30.02;;
59512;SDS011;45330;51.634;5.562;2023-12-07T03:55:50;120.82;;;32.67;;
59512;SDS011;45330;51.634;5.562;2023-12-07T03:58:16;108.53;;;30.88;;
59512;SDS011;45330;51.634;5.562;2023-12-07T04:00:41;109.93;;;30.80;;
59512;SDS011;45330;51.634;5.562;2023-12-07T04:03:07;82.03;;;29.17;;
59512;SDS011;45330;51.634;5.562;2023-12-07T04:05:32;105.40;;;31.05;;
59512;SDS011;45330;51.634;5.562;2023-12-07T04:07:58;75.20;;;28.58;;
59512;SDS011;45330;51.634;5.562;2023-12-07T04:10:24;107.55;;;31.70;;
59512;SDS011;45330;51.634;5.562;2023-12-07T04:12:49;110.85;;;29.63;;
59512;SDS011;45330;51.634;5.562;2023-12-07T04:15:17;93.90;;;27.90;;
59512;SDS011;45330;51.634;5.562;2023-12-07T04:17:43;110.38;;;29.55;;
59512;SDS011;45330;51.634;5.562;2023-12-07T04:20:08;73.30;;;26.30;;
59512;SDS011;45330;51.634;5.562;2023-12-07T04:22:34;112.55;;;29.05;;
59512;SDS011;45330;51.634;5.562;2023-12-07T04:25:00;92.53;;;27.77;;
59512;SDS011;45330;51.634;5.562;2023-12-07T04:27:25;114.80;;;28.27;;
59512;SDS011;45330;51.634;5.562;2023-12-07T04:29:50;73.47;;;26.85;;
59512;SDS011;45330;51.634;5.562;2023-12-07T04:32:16;85.10;;;27.80;;
59512;SDS011;45330;51.634;5.562;2023-12-07T04:34:41;87.50;;;27.98;;
59512;SDS011;45330;51.634;5.562;2023-12-07T04:37:06;95.93;;;27.20;;
59512;SDS011;45330;51.634;5.562;2023-12-07T04:39:32;104.57;;;30.20;;
59512;SDS011;45330;51.634;5.562;2023-12-07T04:41:57;102.40;;;28.83;;
59512;SDS011;45330;51.634;5.562;2023-12-07T04:44:22;75.40;;;26.75;;
59512;SDS011;45330;51.634;5.562;2023-12-07T04:46:50;72.38;;;26.98;;
59512;SDS011;45330;51.634;5.562;2023-12-07T04:49:16;70.43;;;25.55;;
59512;SDS011;45330;51.634;5.562;2023-12-07T04:51:41;86.63;;;28.25;;
59512;SDS011;45330;51.634;5.562;2023-12-07T04:54:11;103.18;;;27.65;;
59512;SDS011;45330;51.634;5.562;2023-12-07T04:56:37;105.75;;;28.52;;
59512;SDS011;45330;51.634;5.562;2023-12-07T04:59:02;94.00;;;28.77;;
59512;SDS011;45330;51.634;5.562;2023-12-07T05:01:27;80.57;;;27.30;;
59512;SDS011;45330;51.634;5.562;2023-12-07T05:03:53;92.10;;;27.38;;
59512;SDS011;45330;51.634;5.562;2023-12-07T05:06:18;112.60;;;28.63;;
59512;SDS011;45330;51.634;5.562;2023-12-07T05:08:44;90.95;;;29.50;;
59512;SDS011;45330;51.634;5.562;2023-12-07T05:11:09;85.78;;;29.27;;
59512;SDS011;45330;51.634;5.562;2023-12-07T05:13:34;66.10;;;26.55;;
59512;SDS011;45330;51.634;5.562;2023-12-07T05:16:00;81.13;;;27.38;;
59512;SDS011;45330;51.634;5.562;2023-12-07T05:18:26;110.63;;;26.80;;
59512;SDS011;45330;51.634;5.562;2023-12-07T05:20:51;141.15;;;27.85;;
59512;SDS011;45330;51.634;5.562;2023-12-07T05:23:16;105.97;;;26.30;;
59512;SDS011;45330;51.634;5.562;2023-12-07T05:25:42;105.15;;;25.38;;
59512;SDS011;45330;51.634;5.562;2023-12-07T05:28:08;108.18;;;24.27;;
59512;SDS011;45330;51.634;5.562;2023-12-07T05:30:34;76.05;;;21.80;;
59512;SDS011;45330;51.634;5.562;2023-12-07T05:33:00;85.03;;;22.70;;
59512;SDS011;45330;51.634;5.562;2023-12-07T05:35:25;85.07;;;23.95;;
59512;SDS011;45330;51.634;5.562;2023-12-07T05:37:51;89.88;;;22.50;;
59512;SDS011;45330;51.634;5.562;2023-12-07T05:40:16;107.43;;;22.13;;
59512;SDS011;45330;51.634;5.562;2023-12-07T05:42:41;68.97;;;20.35;;
59512;SDS011;45330;51.634;5.562;2023-12-07T05:45:07;92.43;;;22.40;;
59512;SDS011;45330;51.634;5.562;2023-12-07T05:47:35;124.35;;;24.27;;
59512;SDS011;45330;51.634;5.562;2023-12-07T05:50:01;124.50;;;23.67;;
59512;SDS011;45330;51.634;5.562;2023-12-07T05:52:28;96.90;;;21.17;;
59512;SDS011;45330;51.634;5.562;2023-12-07T05:54:53;95.85;;;22.48;;
59512;SDS011;45330;51.634;5.562;2023-12-07T05:57:19;108.15;;;21.63;;
59512;SDS011;45330;51.634;5.562;2023-12-07T05:59:44;111.15;;;21.40;;
59512;SDS011;45330;51.634;5.562;2023-12-07T06:02:10;90.80;;;19.85;;
59512;SDS011;45330;51.634;5.562;2023-12-07T06:04:35;115.45;;;21.00;;
59512;SDS011;45330;51.634;5.562;2023-12-07T06:07:01;113.80;;;20.65;;
59512;SDS011;45330;51.634;5.562;2023-12-07T06:09:27;82.80;;;18.33;;
59512;SDS011;45330;51.634;5.562;2023-12-07T06:11:53;106.75;;;19.70;;
59512;SDS011;45330;51.634;5.562;2023-12-07T06:14:19;110.63;;;20.42;;
59512;SDS011;45330;51.634;5.562;2023-12-07T06:16:45;119.00;;;18.95;;
59512;SDS011;45330;51.634;5.562;2023-12-07T06:19:10;107.20;;;18.70;;
59512;SDS011;45330;51.634;5.562;2023-12-07T06:21:35;76.07;;;17.05;;
59512;SDS011;45330;51.634;5.562;2023-12-07T06:24:01;96.70;;;16.90;;
59512;SDS011;45330;51.634;5.562;2023-12-07T06:26:26;67.82;;;17.38;;
59512;SDS011;45330;51.634;5.562;2023-12-07T06:28:51;88.20;;;17.83;;
59512;SDS011;45330;51.634;5.562;2023-12-07T06:31:17;78.35;;;16.23;;
59512;SDS011;45330;51.634;5.562;2023-12-07T06:33:46;69.10;;;15.65;;
59512;SDS011;45330;51.634;5.562;2023-12-07T06:36:17;72.22;;;15.80;;
59512;SDS011;45330;51.634;5.562;2023-12-07T06:38:44;82.63;;;15.68;;
59512;SDS011;45330;51.634;5.562;2023-12-07T06:41:09;83.13;;;16.55;;
59512;SDS011;45330;51.634;5.562;2023-12-07T06:43:35;77.65;;;14.73;;
59512;SDS011;45330;51.634;5.562;2023-12-07T06:46:00;110.20;;;17.10;;
59512;SDS011;45330;51.634;5.562;2023-12-07T06:48:25;76.43;;;15.88;;
59512;SDS011;45330;51.634;5.562;2023-12-07T06:50:51;68.97;;;14.48;;
59512;SDS011;45330;51.634;5.562;2023-12-07T06:53:16;71.07;;;15.52;;
59512;SDS011;45330;51.634;5.562;2023-12-07T06:55:43;90.65;;;15.73;;
59512;SDS011;45330;51.634;5.562;2023-12-07T06:58:09;57.17;;;15.07;;
59512;SDS011;45330;51.634;5.562;2023-12-07T07:00:35;94.53;;;16.67;;
59512;SDS011;45330;51.634;5.562;2023-12-07T07:03:01;97.75;;;16.45;;
59512;SDS011;45330;51.634;5.562;2023-12-07T07:05:26;72.45;;;14.75;;
59512;SDS011;45330;51.634;5.562;2023-12-07T07:07:52;69.72;;;15.40;;
59512;SDS011;45330;51.634;5.562;2023-12-07T07:10:17;61.45;;;13.93;;
59512;SDS011;45330;51.634;5.562;2023-12-07T07:12:43;69.75;;;14.77;;
59512;SDS011;45330;51.634;5.562;2023-12-07T07:15:08;67.18;;;13.73;;
59512;SDS011;45330;51.634;5.562;2023-12-07T07:17:34;79.93;;;15.35;;
59512;SDS011;45330;51.634;5.562;2023-12-07T07:19:59;71.43;;;16.45;;
59512;SDS011;45330;51.634;5.562;2023-12-07T07:22:25;71.47;;;14.88;;
59512;SDS011;45330;51.634;5.562;2023-12-07T07:24:50;71.97;;;14.90;;
59512;SDS011;45330;51.634;5.562;2023-12-07T07:27:16;83.93;;;14.98;;
59512;SDS011;45330;51.634;5.562;2023-12-07T07:29:41;82.32;;;15.68;;
59512;SDS011;45330;51.634;5.562;2023-12-07T07:32:06;54.08;;;13.23;;
59512;SDS011;45330;51.634;5.562;2023-12-07T07:34:32;80.57;;;15.90;;
59512;SDS011;45330;51.634;5.562;2023-12-07T07:36:58;78.32;;;14.57;;
59512;SDS011;45330;51.634;5.562;2023-12-07T07:39:23;48.22;;;13.65;;
59512;SDS011;45330;51.634;5.562;2023-12-07T07:41:48;71.70;;;14.60;;
59512;SDS011;45330;51.634;5.562;2023-12-07T07:44:14;81.35;;;16.13;;
59512;SDS011;45330;51.634;5.562;2023-12-07T07:46:42;61.40;;;14.65;;
59512;SDS011;45330;51.634;5.562;2023-12-07T07:49:08;68.03;;;14.55;;
59512;SDS011;45330;51.634;5.562;2023-12-07T07:51:33;76.32;;;13.90;;
59512;SDS011;45330;51.634;5.562;2023-12-07T07:53:59;69.90;;;14.25;;
59512;SDS011;45330;51.634;5.562;2023-12-07T07:56:25;58.28;;;14.35;;
59512;SDS011;45330;51.634;5.562;2023-12-07T07:58:50;58.42;;;14.02;;
59512;SDS011;45330;51.634;5.562;2023-12-07T08:01:15;70.80;;;14.20;;
59512;SDS011;45330;51.634;5.562;2023-12-07T08:03:41;58.83;;;12.07;;
59512;SDS011;45330;51.634;5.562;2023-12-07T08:06:06;59.33;;;15.40;;
59512;SDS011;45330;51.634;5.562;2023-12-07T08:08:33;58.50;;;14.57;;
59512;SDS011;45330;51.634;5.562;2023-12-07T08:10:58;57.92;;;14.30;;
59512;SDS011;45330;51.634;5.562;2023-12-07T08:13:24;55.40;;;13.90;;
59512;SDS011;45330;51.634;5.562;2023-12-07T08:15:49;53.70;;;14.38;;
59512;SDS011;45330;51.634;5.562;2023-12-07T08:18:14;60.28;;;14.07;;
59512;SDS011;45330;51.634;5.562;2023-12-07T08:20:40;66.50;;;15.38;;
59512;SDS011;45330;51.634;5.562;2023-12-07T08:23:05;66.25;;;15.73;;
59512;SDS011;45330;51.634;5.562;2023-12-07T08:25:30;66.13;;;15.45;;
59512;SDS011;45330;51.634;5.562;2023-12-07T08:27:57;74.97;;;18.13;;
59512;SDS011;45330;51.634;5.562;2023-12-07T08:30:22;66.60;;;15.90;;
59512;SDS011;45330;51.634;5.562;2023-12-07T08:32:48;75.45;;;18.70;;
59512;SDS011;45330;51.634;5.562;2023-12-07T08:35:13;90.97;;;18.50;;
59512;SDS011;45330;51.634;5.562;2023-12-07T08:37:39;84.03;;;18.73;;
59512;SDS011;45330;51.634;5.562;2023-12-07T08:40:05;86.95;;;20.65;;
59512;SDS011;45330;51.634;5.562;2023-12-07T08:42:30;107.57;;;20.85;;
59512;SDS011;45330;51.634;5.562;2023-12-07T08:44:57;96.90;;;22.23;;
59512;SDS011;45330;51.634;5.562;2023-12-07T08:47:22;93.75;;;20.33;;
59512;SDS011;45330;51.634;5.562;2023-12-07T08:49:48;96.95;;;20.38;;
59512;SDS011;45330;51.634;5.562;2023-12-07T08:52:13;91.05;;;20.63;;
59512;SDS011;45330;51.634;5.562;2023-12-07T08:54:38;108.65;;;21.33;;
59512;SDS011;45330;51.634;5.562;2023-12-07T08:57:04;77.38;;;20.25;;
59512;SDS011;45330;51.634;5.562;2023-12-07T08:59:29;100.00;;;19.98;;
59512;SDS011;45330;51.634;5.562;2023-12-07T09:01:57;81.20;;;18.88;;
59512;SDS011;45330;51.634;5.562;2023-12-07T09:04:23;95.47;;;21.27;;
59512;SDS011;45330;51.634;5.562;2023-12-07T09:06:48;83.90;;;19.20;;
59512;SDS011;45330;51.634;5.562;2023-12-07T09:09:13;82.30;;;19.80;;
59512;SDS011;45330;51.634;5.562;2023-12-07T09:11:39;78.95;;;19.45;;
59512;SDS011;45330;51.634;5.562;2023-12-07T09:14:04;83.18;;;20.17;;
59512;SDS011;45330;51.634;5.562;2023-12-07T09:16:30;81.28;;;19.13;;
59512;SDS011;45330;51.634;5.562;2023-12-07T09:18:55;79.35;;;21.23;;
59512;SDS011;45330;51.634;5.562;2023-12-07T09:21:21;96.97;;;21.38;;
59512;SDS011;45330;51.634;5.562;2023-12-07T09:23:46;79.13;;;21.13;;
59512;SDS011;45330;51.634;5.562;2023-12-07T09:26:11;83.47;;;22.80;;
59512;SDS011;45330;51.634;5.562;2023-12-07T09:28:37;84.35;;;22.98;;
59512;SDS011;45330;51.634;5.562;2023-12-07T09:31:04;95.57;;;22.65;;
59512;SDS011;45330;51.634;5.562;2023-12-07T09:33:30;85.35;;;24.85;;
59512;SDS011;45330;51.634;5.562;2023-12-07T09:35:55;86.05;;;24.15;;
59512;SDS011;45330;51.634;5.562;2023-12-07T09:38:21;76.10;;;23.30;;
59512;SDS011;45330;51.634;5.562;2023-12-07T09:40:46;90.22;;;23.27;;
59512;SDS011;45330;51.634;5.562;2023-12-07T09:43:17;88.93;;;22.10;;
59512;SDS011;45330;51.634;5.562;2023-12-07T09:45:43;88.35;;;21.55;;
59512;SDS011;45330;51.634;5.562;2023-12-07T09:48:09;86.80;;;24.88;;
59512;SDS011;45330;51.634;5.562;2023-12-07T09:50:35;76.97;;;23.35;;
59512;SDS011;45330;51.634;5.562;2023-12-07T09:53:02;75.13;;;22.95;;
59512;SDS011;45330;51.634;5.562;2023-12-07T09:55:27;76.05;;;21.92;;
59512;SDS011;45330;51.634;5.562;2023-12-07T09:57:53;81.15;;;23.15;;
59512;SDS011;45330;51.634;5.562;2023-12-07T10:00:21;71.03;;;19.90;;
59512;SDS011;45330;51.634;5.562;2023-12-07T10:02:47;71.70;;;21.88;;
59512;SDS011;45330;51.634;5.562;2023-12-07T10:05:13;62.67;;;20.30;;
59512;SDS011;45330;51.634;5.562;2023-12-07T10:07:41;61.97;;;20.58;;
59512;SDS011;45330;51.634;5.562;2023-12-07T10:10:08;68.78;;;20.95;;
59512;SDS011;45330;51.634;5.562;2023-12-07T10:12:59;59.08;;;20.52;;
59512;SDS011;45330;51.634;5.562;2023-12-07T10:15:24;61.40;;;19.33;;
59512;SDS011;45330;51.634;5.562;2023-12-07T10:17:57;63.17;;;20.05;;
59512;SDS011;45330;51.634;5.562;2023-12-07T10:20:25;60.45;;;20.40;;
59512;SDS011;45330;51.634;5.562;2023-12-07T10:23:01;57.38;;;19.23;;
59512;SDS011;45330;51.634;5.562;2023-12-07T10:25:29;52.88;;;18.63;;
59512;SDS011;45330;51.634;5.562;2023-12-07T10:28:00;53.20;;;18.92;;
59512;SDS011;45330;51.634;5.562;2023-12-07T10:30:29;53.47;;;19.65;;
59512;SDS011;45330;51.634;5.562;2023-12-07T10:32:54;51.63;;;18.75;;
59512;SDS011;45330;51.634;5.562;2023-12-07T10:35:20;50.42;;;19.55;;
59512;SDS011;45330;51.634;5.562;2023-12-07T10:37:46;48.85;;;18.30;;
59512;SDS011;45330;51.634;5.562;2023-12-07T10:40:12;47.67;;;18.65;;
59512;SDS011;45330;51.634;5.562;2023-12-07T10:42:37;47.03;;;18.83;;
59512;SDS011;45330;51.634;5.562;2023-12-07T10:45:06;46.88;;;18.45;;
59512;SDS011;45330;51.634;5.562;2023-12-07T10:47:36;46.90;;;19.90;;
59512;SDS011;45330;51.634;5.562;2023-12-07T10:50:03;45.43;;;18.30;;
59512;SDS011;45330;51.634;5.562;2023-12-07T10:52:35;47.38;;;19.23;;
59512;SDS011;45330;51.634;5.562;2023-12-07T10:55:07;52.22;;;19.42;;
59512;SDS011;45330;51.634;5.562;2023-12-07T10:57:40;44.75;;;19.30;;
59512;SDS011;45330;51.634;5.562;2023-12-07T11:00:07;45.70;;;20.40;;
59512;SDS011;45330;51.634;5.562;2023-12-07T11:02:35;43.83;;;18.80;;
59512;SDS011;45330;51.634;5.562;2023-12-07T11:05:02;46.00;;;20.25;;
59512;SDS011;45330;51.634;5.562;2023-12-07T11:07:32;45.45;;;19.30;;
59512;SDS011;45330;51.634;5.562;2023-12-07T11:10:14;41.92;;;18.52;;
59512;SDS011;45330;51.634;5.562;2023-12-07T11:12:53;42.65;;;18.45;;
59512;SDS011;45330;51.634;5.562;2023-12-07T11:15:24;43.38;;;18.25;;
59512;SDS011;45330;51.634;5.562;2023-12-07T11:17:51;41.63;;;18.20;;
59512;SDS011;45330;51.634;5.562;2023-12-07T11:20:21;42.78;;;18.73;;
59512;SDS011;45330;51.634;5.562;2023-12-07T11:22:47;43.83;;;20.02;;
59512;SDS011;45330;51.634;5.562;2023-12-07T11:25:14;43.92;;;18.23;;
59512;SDS011;45330;51.634;5.562;2023-12-07T11:27:40;41.30;;;18.55;;
59512;SDS011;45330;51.634;5.562;2023-12-07T11:30:06;41.20;;;19.10;;
59512;SDS011;45330;51.634;5.562;2023-12-07T11:32:32;39.08;;;18.67;;
59512;SDS011;45330;51.634;5.562;2023-12-07T11:35:04;37.30;;;17.98;;
59512;SDS011;45330;51.634;5.562;2023-12-07T11:38:00;44.10;;;19.48;;
59512;SDS011;45330;51.634;5.562;2023-12-07T11:40:31;43.17;;;19.85;;
59512;SDS011;45330;51.634;5.562;2023-12-07T11:42:59;40.80;;;19.30;;
59512;SDS011;45330;51.634;5.562;2023-12-07T11:45:37;40.72;;;20.15;;
59512;SDS011;45330;51.634;5.562;2023-12-07T11:48:10;46.30;;;21.38;;
59512;SDS011;45330;51.634;5.562;2023-12-07T11:50:46;42.47;;;20.02;;
59512;SDS011;45330;51.634;5.562;2023-12-07T11:53:22;45.25;;;22.75;;
59512;SDS011;45330;51.634;5.562;2023-12-07T11:55:49;42.83;;;20.20;;
59512;SDS011;45330;51.634;5.562;2023-12-07T11:58:14;45.50;;;21.42;;
59512;SDS011;45330;51.634;5.562;2023-12-07T12:00:40;48.13;;;23.08;;
59512;SDS011;45330;51.634;5.562;2023-12-07T12:03:05;45.47;;;20.83;;
59512;SDS011;45330;51.634;5.562;2023-12-07T12:05:31;44.55;;;21.77;;
59512;SDS011;45330;51.634;5.562;2023-12-07T12:07:56;47.88;;;22.10;;
59512;SDS011;45330;51.634;5.562;2023-12-07T12:10:22;45.88;;;22.38;;
59512;SDS011;45330;51.634;5.562;2023-12-07T12:12:50;46.95;;;21.40;;
59512;SDS011;45330;51.634;5.562;2023-12-07T12:15:18;44.65;;;22.73;;
59512;SDS011;45330;51.634;5.562;2023-12-07T12:17:45;44.97;;;22.15;;
59512;SDS011;45330;51.634;5.562;2023-12-07T12:20:11;46.88;;;22.52;;
59512;SDS011;45330;51.634;5.562;2023-12-07T12:25:07;45.33;;;20.80;;
59512;SDS011;45330;51.634;5.562;2023-12-07T12:27:33;43.72;;;21.55;;
59512;SDS011;45330;51.634;5.562;2023-12-07T12:29:59;45.88;;;22.67;;
59512;SDS011;45330;51.634;5.562;2023-12-07T12:32:25;49.55;;;23.35;;
59512;SDS011;45330;51.634;5.562;2023-12-07T12:34:53;51.05;;;23.38;;
59512;SDS011;45330;51.634;5.562;2023-12-07T12:37:19;49.72;;;23.58;;
59512;SDS011;45330;51.634;5.562;2023-12-07T12:39:44;47.50;;;23.65;;
59512;SDS011;45330;51.634;5.562;2023-12-07T12:42:10;50.92;;;23.25;;
59512;SDS011;45330;51.634;5.562;2023-12-07T12:44:36;46.72;;;23.70;;
59512;SDS011;45330;51.634;5.562;2023-12-07T12:47:06;51.53;;;24.77;;
59512;SDS011;45330;51.634;5.562;2023-12-07T12:49:36;52.58;;;27.75;;
59512;SDS011;45330;51.634;5.562;2023-12-07T12:52:02;52.28;;;26.77;;
59512;SDS011;45330;51.634;5.562;2023-12-07T12:54:31;54.83;;;27.77;;
59512;SDS011;45330;51.634;5.562;2023-12-07T12:56:59;56.15;;;28.67;;
59512;SDS011;45330;51.634;5.562;2023-12-07T12:59:25;56.53;;;28.75;;
59512;SDS011;45330;51.634;5.562;2023-12-07T13:01:50;55.47;;;29.20;;
59512;SDS011;45330;51.634;5.562;2023-12-07T13:04:16;54.95;;;28.42;;
59512;SDS011;45330;51.634;5.562;2023-12-07T13:06:41;50.40;;;26.00;;
59512;SDS011;45330;51.634;5.562;2023-12-07T13:09:07;49.13;;;25.23;;
59512;SDS011;45330;51.634;5.562;2023-12-07T13:11:32;48.35;;;24.50;;
59512;SDS011;45330;51.634;5.562;2023-12-07T13:13:58;46.60;;;24.80;;
59512;SDS011;45330;51.634;5.562;2023-12-07T13:16:24;48.08;;;24.65;;
59512;SDS011;45330;51.634;5.562;2023-12-07T13:18:49;44.30;;;23.20;;
59512;SDS011;45330;51.634;5.562;2023-12-07T13:21:14;40.35;;;20.65;;
59512;SDS011;45330;51.634;5.562;2023-12-07T13:23:40;42.13;;;21.20;;
59512;SDS011;45330;51.634;5.562;2023-12-07T13:26:06;43.13;;;21.48;;
59512;SDS011;45330;51.634;5.562;2023-12-07T13:28:32;40.42;;;20.08;;
59512;SDS011;45330;51.634;5.562;2023-12-07T13:30:57;41.35;;;20.77;;
59512;SDS011;45330;51.634;5.562;2023-12-07T13:33:23;41.30;;;19.42;;
59512;SDS011;45330;51.634;5.562;2023-12-07T13:35:48;40.67;;;20.02;;
59512;SDS011;45330;51.634;5.562;2023-12-07T13:38:14;41.70;;;21.17;;
59512;SDS011;45330;51.634;5.562;2023-12-07T13:40:39;40.78;;;20.77;;
59512;SDS011;45330;51.634;5.562;2023-12-07T13:43:05;37.45;;;19.17;;
59512;SDS011;45330;51.634;5.562;2023-12-07T13:45:31;38.92;;;20.08;;
59512;SDS011;45330;51.634;5.562;2023-12-07T13:47:57;40.22;;;19.25;;
59512;SDS011;45330;51.634;5.562;2023-12-07T13:50:23;37.72;;;18.73;;
59512;SDS011;45330;51.634;5.562;2023-12-07T13:52:49;40.38;;;20.05;;
59512;SDS011;45330;51.634;5.562;2023-12-07T13:55:14;38.45;;;19.33;;
59512;SDS011;45330;51.634;5.562;2023-12-07T13:57:40;41.92;;;19.55;;
59512;SDS011;45330;51.634;5.562;2023-12-07T14:00:05;37.70;;;19.00;;
59512;SDS011;45330;51.634;5.562;2023-12-07T14:02:31;38.33;;;19.35;;
59512;SDS011;45330;51.634;5.562;2023-12-07T14:04:57;39.53;;;19.25;;
59512;SDS011;45330;51.634;5.562;2023-12-07T14:07:22;39.75;;;19.98;;
59512;SDS011;45330;51.634;5.562;2023-12-07T14:09:49;39.63;;;20.77;;
59512;SDS011;45330;51.634;5.562;2023-12-07T14:12:15;40.65;;;20.08;;
59512;SDS011;45330;51.634;5.562;2023-12-07T14:14:45;42.58;;;21.58;;
59512;SDS011;45330;51.634;5.562;2023-12-07T14:17:12;40.03;;;20.33;;
59512;SDS011;45330;51.634;5.562;2023-12-07T14:19:38;39.17;;;20.77;;
59512;SDS011;45330;51.634;5.562;2023-12-07T14:22:03;38.28;;;20.60;;